createdAt,value
2017-11-17T00:00:32.126Z,4.30
2017-11-17T00:02:58.904Z,3.60
2017-11-17T00:05:25.347Z,4.20
2017-11-17T00:07:51.567Z,3.30
2017-11-17T00:10:18.200Z,4.10
2017-11-17T00:12:44.419Z,4.40
2017-11-17T00:15:10.623Z,3.73
2017-11-17T00:17:37.140Z,4.37
2017-11-17T00:20:03.385Z,3.83
2017-11-17T00:22:32.643Z,3.67
2017-11-17T00:24:58.921Z,3.90
2017-11-17T00:27:25.122Z,3.83
2017-11-17T00:29:51.344Z,4.00
2017-11-17T00:32:17.702Z,4.53
2017-11-17T00:34:43.937Z,3.70
2017-11-17T00:37:10.152Z,4.40
2017-11-17T00:39:36.588Z,4.10
2017-11-17T00:42:03.121Z,3.20
2017-11-17T00:44:29.355Z,3.80
2017-11-17T00:46:55.697Z,3.67
2017-11-17T00:49:21.904Z,3.80
2017-11-17T00:51:48.115Z,3.87
2017-11-17T00:54:14.450Z,3.97
2017-11-17T00:56:40.676Z,3.67
2017-11-17T00:59:06.891Z,3.50
2017-11-17T01:01:33.490Z,2.97
2017-11-17T01:03:59.703Z,3.60
2017-11-17T01:06:25.929Z,3.33
2017-11-17T01:08:52.291Z,3.57
2017-11-17T01:11:18.754Z,3.13
2017-11-17T01:13:44.983Z,3.80
2017-11-17T01:16:11.649Z,3.50
2017-11-17T01:18:37.862Z,3.53
2017-11-17T01:21:04.060Z,3.17
2017-11-17T01:23:30.329Z,3.10
2017-11-17T01:25:56.525Z,3.10
2017-11-17T01:28:22.969Z,3.13
2017-11-17T01:30:49.228Z,3.67
2017-11-17T01:33:15.531Z,3.97
2017-11-17T01:35:41.985Z,3.77
2017-11-17T01:38:08.347Z,3.20
2017-11-17T01:40:34.648Z,3.87
2017-11-17T01:43:00.917Z,2.90
2017-11-17T01:45:27.186Z,3.30
2017-11-17T01:47:53.431Z,3.00
2017-11-17T01:50:19.649Z,3.70
2017-11-17T01:52:45.968Z,3.30
2017-11-17T01:55:12.182Z,3.30
2017-11-17T01:57:38.534Z,3.40
2017-11-17T02:00:04.799Z,2.80
2017-11-17T02:02:31.012Z,3.60
2017-11-17T02:04:57.251Z,2.90
2017-11-17T02:07:23.912Z,3.57
2017-11-17T02:09:50.109Z,3.00
2017-11-17T02:12:16.344Z,3.10
2017-11-17T02:14:42.590Z,3.00
2017-11-17T02:17:08.824Z,3.37
2017-11-17T02:19:35.041Z,3.17
2017-11-17T02:22:01.330Z,3.00
2017-11-17T02:24:27.555Z,3.40
2017-11-17T02:26:53.778Z,3.30
2017-11-17T02:29:20.373Z,3.27
2017-11-17T02:31:46.842Z,2.73
2017-11-17T02:34:13.080Z,2.97
2017-11-17T02:36:39.362Z,3.33
2017-11-17T02:39:05.602Z,3.03
2017-11-17T02:41:31.823Z,3.10
2017-11-17T02:43:58.189Z,3.43
2017-11-17T02:46:24.392Z,3.70
2017-11-17T02:48:50.691Z,2.43
2017-11-17T02:51:17.288Z,3.50
2017-11-17T02:53:43.529Z,2.90
2017-11-17T02:56:09.751Z,2.20
2017-11-17T02:58:36.114Z,3.20
2017-11-17T03:01:02.321Z,3.07
2017-11-17T03:03:28.545Z,3.40
2017-11-17T03:05:55.384Z,2.73
2017-11-17T03:08:21.581Z,2.87
2017-11-17T03:10:47.789Z,3.20
2017-11-17T03:13:14.298Z,3.50
2017-11-17T03:15:40.516Z,2.97
2017-11-17T03:18:06.989Z,2.97
2017-11-17T03:20:33.617Z,2.67
2017-11-17T03:22:59.843Z,2.70
2017-11-17T03:25:26.053Z,2.60
2017-11-17T03:27:52.355Z,2.70
2017-11-17T03:30:18.666Z,3.10
2017-11-17T03:32:44.879Z,2.77
2017-11-17T03:35:11.144Z,3.17
2017-11-17T03:37:37.352Z,2.67
2017-11-17T03:40:03.566Z,2.80
2017-11-17T03:42:29.861Z,3.10
2017-11-17T03:44:56.095Z,3.07
2017-11-17T03:47:22.335Z,2.90
2017-11-17T03:49:48.681Z,3.60
2017-11-17T03:52:14.912Z,2.60
2017-11-17T03:54:41.141Z,3.03
2017-11-17T03:57:07.412Z,3.13
2017-11-17T03:59:33.640Z,2.03
2017-11-17T04:01:59.872Z,3.17
2017-11-17T04:04:26.160Z,3.00
2017-11-17T04:06:52.379Z,3.13
2017-11-17T04:09:18.600Z,2.80
2017-11-17T04:11:44.859Z,2.37
2017-11-17T04:14:11.318Z,2.87
2017-11-17T04:16:37.504Z,2.47
2017-11-17T04:19:04.031Z,2.43
2017-11-17T04:21:30.371Z,2.53
2017-11-17T04:23:56.575Z,2.80
2017-11-17T04:26:22.849Z,2.80
2017-11-17T04:28:49.063Z,2.87
2017-11-17T04:31:15.290Z,2.87
2017-11-17T04:33:41.943Z,3.20
2017-11-17T04:36:08.157Z,2.40
2017-11-17T04:38:34.349Z,2.30
2017-11-17T04:41:00.632Z,2.97
2017-11-17T04:43:32.851Z,2.60
2017-11-17T04:45:59.055Z,2.50
2017-11-17T04:48:25.416Z,2.43
2017-11-17T04:50:51.630Z,2.30
2017-11-17T04:53:17.827Z,3.20
2017-11-17T04:55:44.390Z,2.67
2017-11-17T04:58:10.608Z,2.50
2017-11-17T05:00:36.840Z,3.00
2017-11-17T05:03:03.116Z,2.43
2017-11-17T05:05:29.365Z,2.20
2017-11-17T05:07:55.622Z,2.70
2017-11-17T05:10:21.972Z,2.60
2017-11-17T05:12:48.168Z,2.90
2017-11-17T05:15:14.616Z,2.20
2017-11-17T05:17:40.966Z,2.00
2017-11-17T05:20:07.217Z,2.77
2017-11-17T05:22:33.426Z,2.47
2017-11-17T05:25:00.018Z,2.53
2017-11-17T05:27:26.231Z,2.27
2017-11-17T05:29:52.682Z,2.57
2017-11-17T05:32:18.937Z,2.73
2017-11-17T05:34:45.140Z,2.60
2017-11-17T05:37:11.352Z,2.37
2017-11-17T05:39:37.833Z,2.30
2017-11-17T05:42:04.020Z,2.50
2017-11-17T05:44:31.783Z,2.27
2017-11-17T05:46:59.820Z,2.37
2017-11-17T05:49:26.987Z,2.10
2017-11-17T05:52:03.011Z,2.07
2017-11-17T05:54:31.720Z,1.90
2017-11-17T05:57:00.387Z,1.70
2017-11-17T05:59:26.948Z,2.40
2017-11-17T06:01:53.183Z,2.00
2017-11-17T06:04:19.408Z,1.90
2017-11-17T06:06:45.938Z,2.00
2017-11-17T06:09:12.151Z,2.17
2017-11-17T06:11:38.347Z,2.60
2017-11-17T06:14:08.757Z,2.53
2017-11-17T06:16:40.412Z,2.73
2017-11-17T06:19:06.840Z,2.33
2017-11-17T06:21:33.075Z,2.53
2017-11-17T06:24:00.253Z,2.77
2017-11-17T06:26:28.583Z,2.07
2017-11-17T06:28:57.128Z,2.33
2017-11-17T06:31:23.335Z,2.63
2017-11-17T06:33:49.690Z,2.20
2017-11-17T06:36:15.914Z,2.83
2017-11-17T06:38:42.137Z,2.50
2017-11-17T06:41:08.493Z,2.67
2017-11-17T06:43:34.702Z,2.23
2017-11-17T06:46:00.970Z,2.10
2017-11-17T06:48:27.251Z,2.50
2017-11-17T06:50:53.459Z,2.10
2017-11-17T06:53:19.985Z,2.53
2017-11-17T06:55:46.240Z,2.10
2017-11-17T06:58:13.475Z,2.20
2017-11-17T07:00:39.942Z,2.77
2017-11-17T07:03:06.215Z,2.37
2017-11-17T07:05:32.818Z,2.37
2017-11-17T07:07:59.057Z,2.07
2017-11-17T07:10:25.418Z,2.40
2017-11-17T07:12:51.627Z,2.27
2017-11-17T07:15:18.082Z,2.10
2017-11-17T07:17:44.365Z,2.40
2017-11-17T07:20:10.575Z,1.97
2017-11-17T07:22:36.800Z,2.47
2017-11-17T07:25:03.296Z,2.03
2017-11-17T07:27:29.640Z,2.77
2017-11-17T07:29:55.855Z,2.63
2017-11-17T07:32:27.995Z,3.07
2017-11-17T07:34:54.279Z,3.17
2017-11-17T07:37:20.491Z,3.20
2017-11-17T07:39:46.707Z,2.73
2017-11-17T07:42:12.945Z,2.73
2017-11-17T07:44:39.159Z,2.63
2017-11-17T07:47:05.389Z,3.03
2017-11-17T07:49:31.695Z,2.40
2017-11-17T07:51:57.929Z,2.10
2017-11-17T07:54:24.138Z,2.10
2017-11-17T07:56:50.414Z,3.40
2017-11-17T07:59:16.786Z,2.30
2017-11-17T08:01:43.012Z,2.53
2017-11-17T08:04:09.279Z,2.40
2017-11-17T08:06:35.779Z,2.63
2017-11-17T08:09:02.216Z,2.50
2017-11-17T08:11:28.822Z,2.70
2017-11-17T08:13:55.043Z,2.40
2017-11-17T08:16:21.275Z,2.33
2017-11-17T08:18:47.555Z,2.30
2017-11-17T08:21:13.857Z,2.40
2017-11-17T08:23:40.080Z,2.73
2017-11-17T08:26:06.342Z,2.13
2017-11-17T08:28:32.562Z,2.83
2017-11-17T08:30:58.796Z,2.57
2017-11-17T08:33:25.053Z,4.03
2017-11-17T08:35:51.237Z,2.20
2017-11-17T08:38:17.437Z,2.30
2017-11-17T08:40:43.815Z,3.50
2017-11-17T08:43:10.297Z,2.40
2017-11-17T08:45:36.500Z,2.73
2017-11-17T08:48:03.096Z,2.20
2017-11-17T08:50:29.309Z,2.20
2017-11-17T08:52:55.883Z,2.57
2017-11-17T08:55:22.126Z,2.70
2017-11-17T08:57:48.343Z,1.97
2017-11-17T09:00:14.627Z,2.20
2017-11-17T09:02:40.864Z,1.80
2017-11-17T09:05:07.096Z,1.83
2017-11-17T09:07:33.476Z,2.60
2017-11-17T09:09:59.709Z,1.90
2017-11-17T09:12:25.935Z,1.90
2017-11-17T09:14:52.419Z,2.63
2017-11-17T09:17:18.649Z,1.97
2017-11-17T09:19:44.936Z,2.37
2017-11-17T09:22:11.201Z,2.33
2017-11-17T09:24:37.420Z,2.30
2017-11-17T09:27:03.640Z,2.57
2017-11-17T09:29:29.912Z,2.13
2017-11-17T09:31:56.154Z,2.37
2017-11-17T09:34:22.370Z,1.93
2017-11-17T09:36:48.740Z,2.80
2017-11-17T09:39:14.956Z,2.20
2017-11-17T09:41:41.165Z,2.27
2017-11-17T09:44:07.504Z,2.00
2017-11-17T09:46:33.991Z,2.20
2017-11-17T09:49:00.201Z,2.20
2017-11-17T09:51:26.584Z,2.43
2017-11-17T09:53:53.031Z,2.03
2017-11-17T09:56:19.247Z,2.47
2017-11-17T09:58:45.792Z,2.03
2017-11-17T10:01:12.025Z,2.17
2017-11-17T10:03:38.243Z,2.13
2017-11-17T10:06:04.523Z,2.27
2017-11-17T10:08:30.774Z,2.20
2017-11-17T10:10:56.991Z,1.90
2017-11-17T10:13:25.595Z,2.50
2017-11-17T10:15:51.800Z,2.00
2017-11-17T10:18:18.018Z,2.30
2017-11-17T10:20:44.402Z,1.80
2017-11-17T10:23:10.610Z,1.97
2017-11-17T10:25:36.840Z,2.27
2017-11-17T10:28:03.097Z,2.40
2017-11-17T10:30:29.315Z,2.07
2017-11-17T10:32:55.572Z,2.40
2017-11-17T10:35:22.073Z,1.90
2017-11-17T10:37:48.510Z,2.20
2017-11-17T10:40:14.801Z,2.33
2017-11-17T10:42:41.016Z,2.70
2017-11-17T10:45:07.215Z,1.87
2017-11-17T10:47:33.479Z,2.10
2017-11-17T10:49:59.667Z,2.33
2017-11-17T10:52:25.915Z,2.00
2017-11-17T10:54:52.820Z,2.17
2017-11-17T10:57:19.063Z,1.73
2017-11-17T10:59:45.392Z,1.77
2017-11-17T11:02:11.661Z,1.93
2017-11-17T11:04:39.768Z,1.80
2017-11-17T11:07:06.126Z,2.10
2017-11-17T11:09:32.446Z,2.00
2017-11-17T11:11:59.616Z,2.17
2017-11-17T11:14:25.912Z,2.10
2017-11-17T11:16:52.356Z,2.07
2017-11-17T11:19:21.059Z,1.90
2017-11-17T11:21:48.066Z,1.87
2017-11-17T11:24:14.715Z,1.97
2017-11-17T11:26:41.027Z,1.83
2017-11-17T11:29:07.248Z,1.80
2017-11-17T11:31:33.487Z,1.70
2017-11-17T11:34:00.369Z,1.70
2017-11-17T11:36:26.662Z,1.93
2017-11-17T11:38:53.087Z,2.07
2017-11-17T11:41:19.771Z,1.87
2017-11-17T11:43:46.290Z,2.20
2017-11-17T11:46:15.061Z,2.10
2017-11-17T11:48:44.180Z,2.03
2017-11-17T11:51:10.823Z,1.90
2017-11-17T11:53:37.285Z,1.80
2017-11-17T11:56:03.600Z,2.17
2017-11-17T11:58:29.838Z,2.00
2017-11-17T12:00:56.040Z,2.03
2017-11-17T12:03:22.387Z,1.83
2017-11-17T12:05:48.589Z,1.77
2017-11-17T12:08:14.776Z,2.27
2017-11-17T12:10:41.185Z,2.83
2017-11-17T12:13:07.403Z,2.00
2017-11-17T12:15:39.566Z,2.27
2017-11-17T12:18:05.832Z,2.60
2017-11-17T12:20:32.026Z,2.20
2017-11-17T12:22:58.300Z,2.13
2017-11-17T12:25:24.554Z,1.93
2017-11-17T12:27:51.001Z,1.90
2017-11-17T12:30:17.197Z,2.10
2017-11-17T12:32:43.648Z,2.20
2017-11-17T12:35:09.869Z,1.70
2017-11-17T12:37:36.063Z,2.03
2017-11-17T12:40:02.316Z,1.60
2017-11-17T12:42:28.517Z,1.80
2017-11-17T12:44:54.748Z,2.00
2017-11-17T12:47:21.101Z,1.43
2017-11-17T12:49:47.323Z,1.80
2017-11-17T12:52:13.748Z,2.10
2017-11-17T12:54:40.347Z,1.97
2017-11-17T12:57:06.574Z,1.90
2017-11-17T12:59:32.776Z,1.90
2017-11-17T13:01:59.119Z,2.43
2017-11-17T13:04:25.339Z,2.07
2017-11-17T13:06:51.554Z,3.00
2017-11-17T13:09:26.790Z,1.80
2017-11-17T13:11:53.444Z,3.00
2017-11-17T13:14:19.642Z,3.10
2017-11-17T13:16:45.883Z,3.60
2017-11-17T13:19:12.328Z,3.43
2017-11-17T13:21:38.543Z,4.03
2017-11-17T13:24:07.831Z,3.30
2017-11-17T13:26:50.869Z,3.63
2017-11-17T13:29:17.226Z,3.90
2017-11-17T13:31:43.423Z,3.80
2017-11-17T13:39:40.395Z,3.80
2017-11-17T13:42:06.641Z,4.23
2017-11-17T13:46:29.759Z,4.40
2017-11-17T13:49:09.134Z,5.00
2017-11-17T13:59:49.940Z,3.77
2017-11-17T14:04:59.958Z,5.70
2017-11-17T14:07:29.677Z,4.60
2017-11-17T14:10:05.023Z,4.50
2017-11-17T14:12:38.135Z,4.03
2017-11-17T14:15:10.923Z,5.03
2017-11-17T14:20:21.418Z,4.40
2017-11-17T14:22:49.743Z,4.27
2017-11-17T14:25:18.236Z,4.10
2017-11-17T14:27:49.139Z,3.43
2017-11-17T14:30:17.773Z,3.50
2017-11-17T14:32:47.091Z,4.90
2017-11-17T14:35:14.970Z,3.80
2017-11-17T14:37:43.023Z,4.93
2017-11-17T14:40:09.701Z,4.07
2017-11-17T14:42:36.354Z,3.83
2017-11-17T14:45:10.445Z,3.97
2017-11-17T14:50:28.270Z,3.67
2017-11-17T14:52:55.975Z,4.23
2017-11-17T14:55:23.887Z,2.93
2017-11-17T14:57:52.371Z,3.80
2017-11-17T15:00:19.200Z,3.60
2017-11-17T15:02:46.881Z,3.80
2017-11-17T15:05:15.818Z,3.60
2017-11-17T15:07:44.444Z,3.93
2017-11-17T15:10:13.308Z,3.57
2017-11-17T15:12:42.021Z,3.90
2017-11-17T15:15:21.056Z,3.60
2017-11-17T15:17:47.822Z,4.07
2017-11-17T15:20:17.792Z,3.43
2017-11-17T15:22:46.642Z,3.97
2017-11-17T15:25:14.983Z,4.20
2017-11-17T15:27:42.721Z,3.77
2017-11-17T15:30:09.445Z,2.73
2017-11-17T15:32:37.211Z,3.50
2017-11-17T15:35:04.374Z,3.30
2017-11-17T15:37:31.028Z,3.23
2017-11-17T15:39:57.773Z,3.47
2017-11-17T15:42:24.515Z,3.00
2017-11-17T15:44:52.697Z,2.93
2017-11-17T15:47:21.496Z,3.20
2017-11-17T15:49:48.959Z,3.37
2017-11-17T15:52:17.728Z,3.40
2017-11-17T15:54:44.272Z,2.73
2017-11-17T15:57:10.749Z,2.93
2017-11-17T15:59:36.980Z,3.73
2017-11-17T16:02:03.284Z,3.10
2017-11-17T16:04:29.491Z,3.63
2017-11-17T16:06:55.824Z,3.20
2017-11-17T16:09:22.122Z,3.20
2017-11-17T16:11:48.467Z,2.60
2017-11-17T16:14:14.920Z,2.90
2017-11-17T16:16:41.212Z,3.03
2017-11-17T16:19:07.433Z,3.43
2017-11-17T16:21:33.732Z,3.00
2017-11-17T16:24:00.810Z,2.97
2017-11-17T16:26:27.033Z,2.90
2017-11-17T16:28:53.286Z,2.60
2017-11-17T16:31:19.721Z,2.87
2017-11-17T16:33:45.925Z,3.23
2017-11-17T16:36:12.140Z,3.00
2017-11-17T16:38:38.492Z,2.83
2017-11-17T16:41:04.803Z,2.53
2017-11-17T16:43:31.018Z,2.67
2017-11-17T16:45:57.298Z,3.07
2017-11-17T16:48:23.511Z,3.13
2017-11-17T16:50:49.734Z,3.13
2017-11-17T16:53:16.046Z,2.53
2017-11-17T16:55:42.281Z,2.90
2017-11-17T16:58:08.498Z,2.50
2017-11-17T17:00:35.222Z,3.00
2017-11-17T17:03:01.761Z,2.70
2017-11-17T17:05:27.950Z,3.20
2017-11-17T17:07:54.208Z,3.27
2017-11-17T17:10:20.441Z,2.97
2017-11-17T17:12:46.820Z,2.50
2017-11-17T17:15:13.097Z,2.73
2017-11-17T17:17:39.639Z,3.10
2017-11-17T17:20:05.859Z,3.07
2017-11-17T17:22:32.088Z,3.43
2017-11-17T17:24:58.345Z,3.10
2017-11-17T17:27:24.536Z,3.20
2017-11-17T17:29:50.753Z,2.53
2017-11-17T17:32:17.045Z,3.00
2017-11-17T17:34:43.249Z,3.00
2017-11-17T17:37:09.461Z,2.70
2017-11-17T17:39:35.835Z,2.77
2017-11-17T17:42:02.057Z,3.13
2017-11-17T17:44:28.291Z,2.13
2017-11-17T17:46:54.566Z,2.87
2017-11-17T17:49:20.781Z,2.40
2017-11-17T17:51:47.008Z,2.77
2017-11-17T17:54:13.355Z,2.40
2017-11-17T17:56:39.673Z,2.73
2017-11-17T17:59:06.113Z,2.87
2017-11-17T18:01:32.573Z,2.53
2017-11-17T18:03:58.795Z,2.67
2017-11-17T18:06:25.016Z,2.80
2017-11-17T18:08:51.280Z,2.33
2017-11-17T18:11:17.480Z,2.43
2017-11-17T18:13:43.706Z,2.40
2017-11-17T18:16:10.194Z,3.13
2017-11-17T18:18:36.402Z,2.40
2017-11-17T18:21:02.692Z,3.10
2017-11-17T18:23:28.959Z,3.00
2017-11-17T18:25:55.275Z,2.63
2017-11-17T18:28:21.476Z,2.73
2017-11-17T18:30:47.764Z,2.70
2017-11-17T18:33:14.005Z,2.33
2017-11-17T18:35:40.206Z,2.70
2017-11-17T18:38:06.519Z,2.67
2017-11-17T18:40:32.724Z,2.80
2017-11-17T18:42:59.223Z,2.67
2017-11-17T18:45:25.548Z,2.83
2017-11-17T18:47:52.027Z,2.70
2017-11-17T18:50:18.256Z,2.20
2017-11-17T18:52:44.527Z,2.23
2017-11-17T18:55:10.971Z,2.20
2017-11-17T18:57:37.189Z,2.50
2017-11-17T19:00:03.580Z,2.53
2017-11-17T19:02:29.754Z,2.27
2017-11-17T19:04:55.947Z,1.93
2017-11-17T19:07:22.381Z,2.70
2017-11-17T19:09:48.635Z,2.60
2017-11-17T19:12:14.795Z,2.60
2017-11-17T19:14:41.146Z,1.83
2017-11-17T19:17:07.357Z,2.73
2017-11-17T19:19:33.853Z,2.70
2017-11-17T19:22:00.188Z,2.80
2017-11-17T19:24:26.395Z,2.73
2017-11-17T19:26:52.610Z,2.50
2017-11-17T19:29:18.956Z,2.30
2017-11-17T19:31:45.158Z,2.80
2017-11-17T19:34:11.362Z,2.23
2017-11-17T19:36:37.621Z,2.20
2017-11-17T19:39:03.902Z,2.03
2017-11-17T19:41:35.992Z,2.20
2017-11-17T19:44:02.934Z,1.97
2017-11-17T19:46:29.139Z,1.70
2017-11-17T19:48:55.340Z,1.97
2017-11-17T19:51:21.583Z,2.17
2017-11-17T19:53:47.797Z,2.67
2017-11-17T19:56:13.998Z,2.03
2017-11-17T19:58:40.576Z,1.60
2017-11-17T20:01:06.800Z,2.10
2017-11-17T20:03:33.292Z,2.00
2017-11-17T20:05:59.571Z,2.00
2017-11-17T20:08:25.769Z,2.77
2017-11-17T20:10:51.995Z,2.10
2017-11-17T20:13:18.518Z,2.37
2017-11-17T20:15:44.744Z,2.60
2017-11-17T20:18:10.968Z,1.97
2017-11-17T20:20:37.300Z,2.40
2017-11-17T20:23:03.507Z,2.40
2017-11-17T20:25:29.779Z,2.17
2017-11-17T20:27:56.048Z,2.30
2017-11-17T20:30:22.266Z,2.13
2017-11-17T20:32:48.704Z,2.03
2017-11-17T20:35:15.052Z,2.07
2017-11-17T20:37:41.249Z,2.10
2017-11-17T20:40:07.447Z,2.10
2017-11-17T20:42:33.699Z,1.83
2017-11-17T20:44:59.902Z,2.33
2017-11-17T20:47:26.094Z,1.77
2017-11-17T20:49:52.436Z,1.97
2017-11-17T20:52:18.889Z,1.83
2017-11-17T20:54:45.096Z,2.00
2017-11-17T20:57:11.589Z,2.40
2017-11-17T20:59:37.783Z,2.20
2017-11-17T21:02:03.973Z,2.00
2017-11-17T21:04:30.306Z,2.30
2017-11-17T21:06:56.499Z,2.20
2017-11-17T21:09:22.990Z,1.93
2017-11-17T21:11:49.250Z,2.10
2017-11-17T21:14:15.444Z,1.97
2017-11-17T21:16:41.644Z,1.73
2017-11-17T21:19:07.879Z,2.20
2017-11-17T21:21:34.099Z,1.73
2017-11-17T21:24:00.459Z,2.17
2017-11-17T21:26:26.703Z,2.00
2017-11-17T21:28:52.962Z,2.20
2017-11-17T21:31:19.249Z,2.20
2017-11-17T21:33:45.461Z,1.87
2017-11-17T21:36:11.657Z,1.73
2017-11-17T21:38:38.077Z,1.87
2017-11-17T21:41:04.278Z,1.70
2017-11-17T21:43:30.496Z,2.57
2017-11-17T21:45:56.839Z,2.00
2017-11-17T21:48:23.053Z,2.10
2017-11-17T21:50:49.269Z,1.67
2017-11-17T21:53:15.629Z,2.10
2017-11-17T21:55:42.131Z,2.37
2017-11-17T21:58:08.311Z,2.23
2017-11-17T22:00:34.566Z,2.00
2017-11-17T22:03:00.784Z,2.00
2017-11-17T22:05:27.051Z,1.80
2017-11-17T22:07:53.407Z,2.00
2017-11-17T22:10:19.614Z,2.20
2017-11-17T22:12:45.829Z,1.80
2017-11-17T22:15:12.168Z,2.27
2017-11-17T22:17:38.377Z,2.10
2017-11-17T22:20:04.762Z,1.87
2017-11-17T22:22:31.266Z,2.00
2017-11-17T22:24:57.563Z,2.40
2017-11-17T22:27:23.775Z,2.00
2017-11-17T22:29:50.018Z,1.80
2017-11-17T22:32:16.215Z,2.00
2017-11-17T22:34:42.431Z,2.00
2017-11-17T22:37:08.714Z,2.20
2017-11-17T22:39:34.940Z,1.90
2017-11-17T22:42:01.254Z,2.47
2017-11-17T22:44:27.518Z,2.20
2017-11-17T22:46:53.716Z,2.20
2017-11-17T22:49:20.162Z,2.17
2017-11-17T22:51:46.505Z,2.23
2017-11-17T22:54:12.948Z,1.90
2017-11-17T22:56:39.396Z,1.60
2017-11-17T22:59:05.645Z,2.00
2017-11-17T23:01:31.841Z,2.00
2017-11-17T23:03:58.048Z,1.80
2017-11-17T23:06:24.396Z,2.10
2017-11-17T23:08:50.604Z,2.10
2017-11-17T23:11:16.825Z,1.90
2017-11-17T23:13:43.353Z,1.90
2017-11-17T23:16:09.573Z,1.60
2017-11-17T23:18:35.786Z,1.87
2017-11-17T23:21:02.160Z,2.20
2017-11-17T23:23:28.395Z,1.97
2017-11-17T23:25:54.600Z,2.27
2017-11-17T23:28:20.877Z,1.97
2017-11-17T23:30:47.084Z,1.97
2017-11-17T23:33:13.278Z,2.50
2017-11-17T23:35:39.862Z,1.93
2017-11-17T23:38:06.075Z,1.90
2017-11-17T23:40:32.280Z,2.20
2017-11-17T23:42:58.555Z,1.80
2017-11-17T23:45:25.009Z,1.77
2017-11-17T23:47:51.216Z,1.60
2017-11-17T23:50:17.502Z,2.00
2017-11-17T23:52:44.020Z,2.50
2017-11-17T23:55:10.236Z,2.30
2017-11-17T23:57:36.588Z,1.80
